Time;durP1;ratioP1;P1;durP2;ratioP2;P2;SDS_P1;SDS_P2;PMS_P1;PMS_P2;Temp;Humidity;BMP_temperature;BMP_pressure;BME280_temperature;BME280_humidity;BME280_pressure;Samples;Min_cycle;Max_cycle;Signal;HPM_P1;HPM_P2
2022/11/02 18:13:15;;;;;;;24.93;5.93;;;;;;;;;;2007866;71;28263;-77
2022/11/02 18:15:44;;;;;;;21.30;5.43;;;;;;;;;;1968854;72;26232;-78
2022/11/02 18:18:13;;;;;;;19.93;5.77;;;;;;;;;;1969142;72;26472;-75
2022/11/02 18:20:42;;;;;;;21.13;5.40;;;;;;;;;;1968733;72;26877;-75
2022/11/02 18:23:15;;;;;;;21.97;5.30;;;;;;;;;;1968810;72;26249;-75
2022/11/02 18:25:43;;;;;;;24.30;5.90;;;;;;;;;;1969277;72;26232;-75
2022/11/02 18:28:13;;;;;;;27.20;6.23;;;;;;;;;;1969132;72;26712;-74
2022/11/02 18:30:43;;;;;;;25.47;5.60;;;;;;;;;;1939655;72;26706;-76
2022/11/02 18:33:12;;;;;;;22.80;5.67;;;;;;;;;;1969384;72;26576;-75
2022/11/02 18:35:42;;;;;;;24.40;5.87;;;;;;;;;;1968854;72;26725;-75
2022/11/02 18:38:11;;;;;;;20.23;5.23;;;;;;;;;;1969156;72;26690;-75
2022/11/02 18:40:39;;;;;;;16.70;5.03;;;;;;;;;;1967538;72;26236;-75
2022/11/02 18:43:09;;;;;;;22.30;5.93;;;;;;;;;;1934301;74;26268;-74
2022/11/02 18:45:38;;;;;;;18.93;4.77;;;;;;;;;;1934136;74;26290;-76
2022/11/02 18:48:08;;;;;;;14.87;4.60;;;;;;;;;;1934424;74;26345;-73
2022/11/02 18:50:37;;;;;;;24.83;6.03;;;;;;;;;;1915800;74;26562;-73
2022/11/02 18:53:07;;;;;;;19.57;5.63;;;;;;;;;;1868937;76;26295;-73
2022/11/02 18:55:38;;;;;;;17.53;5.80;;;;;;;;;;1867331;77;26311;-74
2022/11/02 18:58:06;;;;;;;25.87;7.30;;;;;;;;;;1869337;77;26213;-73
2022/11/02 19:00:35;;;;;;;26.73;6.83;;;;;;;;;;1845419;77;26287;-73
2022/11/02 19:03:04;;;;;;;25.77;6.33;;;;;;;;;;1869482;77;26213;-73
2022/11/02 19:11:05;;;;;;;25.30;6.63;;;;;;;;;;1869115;73;26226;-76
2022/11/02 19:13:34;;;;;;;21.93;5.63;;;;;;;;;;1869299;77;26206;-75
2022/11/02 19:16:03;;;;;;;21.47;5.90;;;;;;;;;;1869421;77;26209;-76
2022/11/02 19:18:33;;;;;;;22.73;5.70;;;;;;;;;;1869421;77;26220;-76
2022/11/02 19:21:02;;;;;;;23.57;5.17;;;;;;;;;;1869606;77;26652;-76
2022/11/02 19:23:30;;;;;;;20.83;5.10;;;;;;;;;;1868980;77;26305;-76
2022/11/02 19:25:58;;;;;;;15.13;4.80;;;;;;;;;;1844782;77;26275;-75
2022/11/02 19:28:27;;;;;;;22.83;5.37;;;;;;;;;;1868806;77;26829;-75
2022/11/02 19:30:56;;;;;;;15.30;4.80;;;;;;;;;;1868778;77;26360;-75
2022/11/02 19:33:24;;;;;;;21.30;5.80;;;;;;;;;;1868753;77;26213;-75
2022/11/02 19:35:56;;;;;;;23.80;5.70;;;;;;;;;;1868699;77;26225;-75
2022/11/02 19:38:25;;;;;;;30.10;6.67;;;;;;;;;;1868737;77;26293;-77
2022/11/02 19:41:00;;;;;;;19.70;6.30;;;;;;;;;;1868743;76;26259;-76
2022/11/02 19:43:30;;;;;;;22.30;6.13;;;;;;;;;;1868746;77;26260;-75
2022/11/02 19:46:02;;;;;;;23.70;5.53;;;;;;;;;;1868697;77;26220;-75
2022/11/02 19:48:31;;;;;;;20.20;5.57;;;;;;;;;;1868756;77;27058;-75
2022/11/02 19:51:07;;;;;;;22.13;5.50;;;;;;;;;;1868734;77;26760;-74
2022/11/02 19:53:36;;;;;;;6.90;2.30;;;;;;;;;;1868747;77;26209;-75
2022/11/02 19:56:09;;;;;;;8.20;2.47;;;;;;;;;;1868516;77;26275;-75
2022/11/02 19:58:38;;;;;;;6.33;1.70;;;;;;;;;;1868819;77;26276;-74
2022/11/02 20:01:08;;;;;;;7.20;2.00;;;;;;;;;;1868803;77;26228;-74
2022/11/02 20:03:37;;;;;;;5.57;1.30;;;;;;;;;;1868828;77;26214;-75
2022/11/02 20:06:07;;;;;;;4.83;1.70;;;;;;;;;;1868729;77;26225;-74
2022/11/02 20:08:35;;;;;;;6.40;1.60;;;;;;;;;;1868851;77;26287;-75
2022/11/02 20:11:04;;;;;;;6.40;1.73;;;;;;;;;;1844602;77;26824;-74
2022/11/02 20:13:33;;;;;;;4.83;1.50;;;;;;;;;;1868828;73;26350;-75
2022/11/02 20:16:02;;;;;;;3.90;1.20;;;;;;;;;;1868622;77;26221;-74
2022/11/02 20:18:31;;;;;;;3.50;1.20;;;;;;;;;;1844776;77;26376;-76
2022/11/02 20:21:03;;;;;;;2.77;1.30;;;;;;;;;;1868630;77;26879;-75
2022/11/02 20:23:32;;;;;;;1.37;0.90;;;;;;;;;;1868801;77;26288;-76
2022/11/02 20:26:01;;;;;;;1.90;1.20;;;;;;;;;;1868707;77;26210;-74
2022/11/02 20:28:29;;;;;;;1.70;1.20;;;;;;;;;;1868760;77;26303;-75
2022/11/02 20:30:59;;;;;;;1.73;1.63;;;;;;;;;;1868744;77;26757;-75
2022/11/02 20:33:28;;;;;;;1.67;1.50;;;;;;;;;;1868838;77;26892;-77
2022/11/02 20:35:57;;;;;;;1.83;1.37;;;;;;;;;;1868586;77;26213;-76
2022/11/02 20:38:26;;;;;;;2.57;1.23;;;;;;;;;;1816020;77;26272;-75
2022/11/02 20:40:56;;;;;;;1.87;1.20;;;;;;;;;;1848454;77;26284;-76
2022/11/02 20:43:24;;;;;;;2.30;1.27;;;;;;;;;;1848559;77;26201;-76
2022/11/02 20:46:01;;;;;;;2.57;1.50;;;;;;;;;;1815872;77;26215;-76
2022/11/02 20:48:30;;;;;;;3.63;1.90;;;;;;;;;;1848723;77;26671;-76
2022/11/02 20:50:58;;;;;;;2.20;1.47;;;;;;;;;;1848717;77;26222;-76
2022/11/02 20:53:27;;;;;;;3.10;1.90;;;;;;;;;;1848609;77;26284;-75
2022/11/02 20:55:57;;;;;;;4.45;1.90;;;;;;;;;;1848514;77;26802;-75
2022/11/02 20:58:25;;;;;;;2.57;2.27;;;;;;;;;;1848479;77;26217;-77
2022/11/02 21:00:54;;;;;;;4.90;2.43;;;;;;;;;;1848519;77;26210;-76
2022/11/02 21:03:23;;;;;;;6.30;2.77;;;;;;;;;;1848583;77;26688;-77
2022/11/02 21:05:51;;;;;;;5.17;2.80;;;;;;;;;;1848698;77;26205;-78
2022/11/02 21:08:21;;;;;;;6.47;3.73;;;;;;;;;;1815474;77;26210;-78
2022/11/02 21:10:57;;;;;;;10.27;3.87;;;;;;;;;;1848616;77;26775;-78
2022/11/02 21:16:13;;;;;;;12.57;5.00;;;;;;;;;;1848544;77;26214;-78
2022/11/02 21:18:41;;;;;;;12.17;4.50;;;;;;;;;;1816085;77;26810;-78
2022/11/02 21:21:11;;;;;;;10.03;4.43;;;;;;;;;;1848652;77;27116;-79
2022/11/02 21:23:40;;;;;;;13.67;5.07;;;;;;;;;;1848499;77;26209;-79
2022/11/02 21:26:09;;;;;;;10.07;3.83;;;;;;;;;;1848615;77;26275;-78
2022/11/02 21:28:40;;;;;;;12.30;3.80;;;;;;;;;;1815336;77;26221;-78
2022/11/02 21:31:10;;;;;;;10.00;4.20;;;;;;;;;;1848719;77;26271;-78
2022/11/02 21:33:39;;;;;;;14.53;5.37;;;;;;;;;;1848597;77;26206;-79
2022/11/02 21:36:09;;;;;;;11.93;4.00;;;;;;;;;;1848633;77;26206;-78
2022/11/02 21:38:38;;;;;;;11.27;4.70;;;;;;;;;;1848651;77;26275;-79
2022/11/02 21:41:08;;;;;;;15.00;4.60;;;;;;;;;;1848764;77;26732;-78
2022/11/02 21:43:37;;;;;;;7.20;3.50;;;;;;;;;;1848670;77;26215;-79
2022/11/02 21:46:06;;;;;;;7.33;4.50;;;;;;;;;;1848716;77;26292;-79
2022/11/02 21:48:37;;;;;;;8.50;4.20;;;;;;;;;;1848630;77;26205;-79
2022/11/02 21:51:08;;;;;;;6.87;4.10;;;;;;;;;;1848761;77;26201;-79
2022/11/02 21:53:37;;;;;;;6.20;3.70;;;;;;;;;;1848920;77;26307;-79
2022/11/02 21:56:08;;;;;;;5.43;4.93;;;;;;;;;;1848416;77;26820;-77
2022/11/02 21:58:36;;;;;;;5.87;4.67;;;;;;;;;;1848479;77;26818;-78
2022/11/02 22:03:52;;;;;;;9.40;5.30;;;;;;;;;;1848827;77;26742;-79
2022/11/02 22:06:21;;;;;;;5.90;5.20;;;;;;;;;;1847028;77;26601;-78
2022/11/02 22:08:50;;;;;;;5.40;3.47;;;;;;;;;;1813633;77;26973;-78
2022/11/02 22:11:20;;;;;;;6.37;3.50;;;;;;;;;;1846640;77;26362;-78
2022/11/02 22:14:25;;;;;;;3.63;2.30;;;;;;;;;;1813894;76;26442;-75
2022/11/02 22:16:54;;;;;;;5.17;3.77;;;;;;;;;;1846807;77;26292;-78
2022/11/02 22:19:22;;;;;;;3.57;3.27;;;;;;;;;;1846655;77;27462;-76
2022/11/02 22:21:51;;;;;;;3.93;3.50;;;;;;;;;;1846437;77;26253;-75
2022/11/02 22:24:20;;;;;;;4.93;3.10;;;;;;;;;;1813542;77;24268;-76
2022/11/02 22:26:50;;;;;;;4.23;2.90;;;;;;;;;;1813431;77;26315;-75
2022/11/02 22:29:19;;;;;;;4.80;4.40;;;;;;;;;;1846359;77;26311;-75
2022/11/02 22:31:48;;;;;;;3.30;1.70;;;;;;;;;;1846698;77;26249;-75
2022/11/02 22:34:16;;;;;;;1.77;1.50;;;;;;;;;;1846761;77;26822;-76
2022/11/02 22:36:45;;;;;;;3.20;1.80;;;;;;;;;;1846548;77;26331;-75
2022/11/02 22:39:14;;;;;;;2.00;1.80;;;;;;;;;;1846592;77;27048;-75
2022/11/02 22:41:43;;;;;;;3.10;2.90;;;;;;;;;;1846801;77;26339;-75
2022/11/02 22:44:13;;;;;;;4.50;3.20;;;;;;;;;;1847113;77;26299;-75
2022/11/02 22:46:42;;;;;;;1.50;1.40;;;;;;;;;;1846849;77;26504;-76
2022/11/02 22:49:12;;;;;;;5.77;2.80;;;;;;;;;;1847090;77;26714;-76
2022/11/02 22:51:41;;;;;;;3.60;3.30;;;;;;;;;;1847125;77;26548;-76
2022/11/02 22:54:12;;;;;;;2.90;1.40;;;;;;;;;;1847058;77;26273;-83
2022/11/02 22:56:41;;;;;;;4.17;1.20;;;;;;;;;;1846764;77;26324;-84
2022/11/02 22:59:10;;;;;;;5.20;1.70;;;;;;;;;;1814342;77;26261;-84
2022/11/02 23:01:39;;;;;;;5.50;1.63;;;;;;;;;;1847074;77;26316;-85
2022/11/02 23:04:10;;;;;;;4.43;1.90;;;;;;;;;;1847339;77;26793;-84
2022/11/02 23:06:39;;;;;;;4.30;1.60;;;;;;;;;;1849008;77;26782;-84
2022/11/02 23:09:08;;;;;;;5.07;1.90;;;;;;;;;;1849192;77;26217;-84
2022/11/02 23:11:37;;;;;;;5.40;1.40;;;;;;;;;;1817137;77;26224;-83
2022/11/02 23:14:10;;;;;;;3.90;1.60;;;;;;;;;;1803474;79;26775;-84
2022/11/02 23:16:39;;;;;;;7.30;2.00;;;;;;;;;;1841618;78;26705;-85
2022/11/02 23:19:28;;;;;;;3.70;1.50;;;;;;;;;;1824606;78;26267;-81
2022/11/02 23:27:32;;;;;;;6.83;2.07;;;;;;;;;;1832779;78;26299;-83
2022/11/02 23:32:49;;;;;;;7.20;2.35;;;;;;;;;;1833239;78;26332;-84
2022/11/02 23:38:06;;;;;;;7.70;2.23;;;;;;;;;;1813062;78;26736;-82
2022/11/02 23:40:37;;;;;;;7.17;2.40;;;;;;;;;;1832956;78;26515;-79
2022/11/02 23:43:06;;;;;;;6.63;2.40;;;;;;;;;;1832785;78;26925;-83
2022/11/02 23:45:35;;;;;;;8.37;2.00;;;;;;;;;;1834906;78;26893;-84
2022/11/02 23:48:06;;;;;;;12.57;2.67;;;;;;;;;;1832993;78;26229;-85
2022/11/02 23:59:06;;;;;;;9.93;2.60;;;;;;;;;;1833070;78;26278;-83
